createdAt,value
2022-12-14T00:01:36.243Z,-4.70
2022-12-14T00:04:03.074Z,-4.70
2022-12-14T00:06:32.559Z,-4.60
2022-12-14T00:09:04.397Z,-4.70
2022-12-14T00:11:33.679Z,-4.70
2022-12-14T00:14:02.769Z,-4.70
2022-12-14T00:16:32.076Z,-4.70
2022-12-14T00:19:00.524Z,-4.70
2022-12-14T00:21:27.934Z,-4.70
2022-12-14T00:23:55.816Z,-4.70
2022-12-14T00:26:25.771Z,-4.70
2022-12-14T00:28:54.540Z,-4.70
2022-12-14T00:31:22.521Z,-4.70
2022-12-14T00:33:50.538Z,-4.70
2022-12-14T00:36:17.814Z,-4.70
2022-12-14T00:38:44.776Z,-4.70
2022-12-14T00:41:12.445Z,-4.70
2022-12-14T00:43:39.800Z,-4.70
2022-12-14T00:46:07.330Z,-4.60
2022-12-14T00:48:34.647Z,-4.70
2022-12-14T00:51:01.460Z,-4.60
2022-12-14T00:53:28.317Z,-4.60
2022-12-14T00:55:55.402Z,-4.60
2022-12-14T00:58:24.882Z,-4.60
2022-12-14T01:01:12.478Z,-4.60
2022-12-14T01:03:39.653Z,-4.60
2022-12-14T01:06:12.607Z,-4.60
2022-12-14T01:08:39.375Z,-4.50
2022-12-14T01:11:07.333Z,-4.60
2022-12-14T01:13:36.029Z,-4.50
2022-12-14T01:16:08.600Z,-4.50
2022-12-14T01:18:36.974Z,-4.50
2022-12-14T01:21:19.322Z,-4.50
2022-12-14T01:23:47.356Z,-4.60
2022-12-14T01:26:15.606Z,-4.50
2022-12-14T01:28:42.766Z,-4.50
2022-12-14T01:31:18.079Z,-4.50
2022-12-14T01:33:45.465Z,-4.50
2022-12-14T01:36:18.309Z,-4.50
2022-12-14T01:38:46.085Z,-4.50
2022-12-14T01:41:38.771Z,-4.50
2022-12-14T01:44:08.472Z,-4.50
2022-12-14T01:46:40.043Z,-4.50
2022-12-14T01:49:43.229Z,-4.40
2022-12-14T01:52:16.042Z,-4.40
2022-12-14T01:55:08.105Z,-4.40
2022-12-14T01:57:37.926Z,-4.40
2022-12-14T02:00:08.709Z,-4.40
2022-12-14T02:02:38.150Z,-4.40
2022-12-14T02:05:08.102Z,-4.40
2022-12-14T02:07:35.044Z,-4.40
2022-12-14T02:10:05.646Z,-4.40
2022-12-14T02:12:39.111Z,-4.40
2022-12-14T02:15:07.076Z,-4.40
2022-12-14T02:17:35.190Z,-4.40
2022-12-14T02:20:03.939Z,-4.40
2022-12-14T02:22:53.060Z,-4.40
2022-12-14T02:25:49.195Z,-4.40
2022-12-14T02:28:51.710Z,-4.40
2022-12-14T02:31:43.166Z,-4.40
2022-12-14T02:34:17.272Z,-4.40
2022-12-14T02:36:58.004Z,-4.50
2022-12-14T02:39:37.096Z,-4.50
2022-12-14T02:42:15.003Z,-4.40
2022-12-14T02:45:01.375Z,-4.50
2022-12-14T02:47:38.440Z,-4.40
2022-12-14T02:50:14.389Z,-4.40
2022-12-14T02:53:11.969Z,-4.40
2022-12-14T02:55:52.052Z,-4.50
2022-12-14T02:58:32.834Z,-4.50
2022-12-14T03:01:00.055Z,-4.50
2022-12-14T03:03:27.273Z,-4.50
2022-12-14T03:06:14.757Z,-4.50
2022-12-14T03:08:44.429Z,-4.50
2022-12-14T03:11:16.476Z,-4.50
2022-12-14T03:13:46.035Z,-4.60
2022-12-14T03:16:29.947Z,-4.60
2022-12-14T03:19:11.149Z,-4.60
2022-12-14T03:21:44.240Z,-4.60
2022-12-14T03:24:15.142Z,-4.60
2022-12-14T03:26:50.319Z,-4.70
2022-12-14T03:29:28.432Z,-4.80
2022-12-14T03:32:02.285Z,-4.80
2022-12-14T03:34:35.088Z,-4.80
2022-12-14T03:37:06.310Z,-4.80
2022-12-14T03:39:35.186Z,-4.80
2022-12-14T03:42:23.753Z,-4.80
2022-12-14T03:45:15.473Z,-4.90
2022-12-14T03:48:09.514Z,-4.90
2022-12-14T03:50:40.513Z,-4.90
2022-12-14T03:53:12.643Z,-4.90
2022-12-14T03:55:59.147Z,-4.90
2022-12-14T03:58:57.333Z,-5.00
2022-12-14T04:01:55.927Z,-5.00
2022-12-14T04:05:04.034Z,-5.10
2022-12-14T04:07:44.053Z,-5.10
2022-12-14T04:10:36.505Z,-5.10
2022-12-14T04:13:28.920Z,-5.20
2022-12-14T04:16:18.067Z,-5.30
2022-12-14T04:19:01.853Z,-5.20
2022-12-14T04:22:09.102Z,-4.90
2022-12-14T04:25:00.008Z,-5.00
2022-12-14T04:27:39.328Z,-5.00
2022-12-14T04:30:09.458Z,-5.00
2022-12-14T04:33:30.702Z,-4.90
2022-12-14T04:36:02.145Z,-4.90
2022-12-14T04:38:35.082Z,-4.90
2022-12-14T04:41:07.663Z,-5.00
2022-12-14T04:43:39.792Z,-5.00
2022-12-14T04:46:10.980Z,-4.90
2022-12-14T04:48:43.886Z,-5.00
2022-12-14T04:51:13.422Z,-5.00
2022-12-14T04:53:43.049Z,-5.00
2022-12-14T04:56:27.654Z,-5.00
2022-12-14T04:58:54.755Z,-5.00
2022-12-14T05:01:31.208Z,-5.10
2022-12-14T05:04:20.701Z,-5.10
2022-12-14T05:06:58.620Z,-5.10
2022-12-14T05:09:46.463Z,-5.10
2022-12-14T05:12:58.809Z,-5.10
2022-12-14T05:15:34.573Z,-5.10
2022-12-14T05:18:05.640Z,-5.10
2022-12-14T05:20:32.487Z,-5.20
2022-12-14T05:22:59.362Z,-5.20
2022-12-14T05:25:26.174Z,-5.30
2022-12-14T05:27:52.992Z,-5.30
2022-12-14T05:30:19.771Z,-5.30
2022-12-14T05:32:46.583Z,-5.40
2022-12-14T05:35:13.889Z,-5.40
2022-12-14T05:37:41.756Z,-5.30
2022-12-14T05:40:09.470Z,-5.40
2022-12-14T05:42:40.951Z,-5.40
2022-12-14T05:45:12.808Z,-5.50
2022-12-14T05:47:39.896Z,-5.50
2022-12-14T05:50:07.707Z,-5.40
2022-12-14T05:52:34.878Z,-5.50
2022-12-14T05:55:04.504Z,-5.50
2022-12-14T05:57:32.284Z,-5.40
2022-12-14T05:59:59.068Z,-5.50
2022-12-14T06:02:26.104Z,-5.50
2022-12-14T06:04:52.891Z,-5.50
2022-12-14T06:07:24.485Z,-5.50
2022-12-14T06:09:54.430Z,-5.50
2022-12-14T06:12:21.296Z,-5.60
2022-12-14T06:14:48.132Z,-5.50
2022-12-14T06:17:17.825Z,-5.50
2022-12-14T06:19:49.532Z,-5.60
2022-12-14T06:22:17.859Z,-5.50
2022-12-14T06:24:45.184Z,-5.50
2022-12-14T06:27:12.087Z,-5.50
2022-12-14T06:29:38.881Z,-5.40
2022-12-14T06:32:05.782Z,-5.30
2022-12-14T06:34:36.903Z,-5.30
2022-12-14T06:37:06.412Z,-5.30
2022-12-14T06:39:33.303Z,-5.30
2022-12-14T06:42:00.118Z,-5.40
2022-12-14T06:44:27.036Z,-5.30
2022-12-14T06:46:54.013Z,-5.30
2022-12-14T06:49:20.937Z,-5.30
2022-12-14T06:51:48.414Z,-5.40
2022-12-14T06:54:16.345Z,-5.30
2022-12-14T06:56:45.315Z,-5.20
2022-12-14T06:59:13.142Z,-5.20
2022-12-14T07:01:40.810Z,-5.20
2022-12-14T07:04:09.697Z,-5.20
2022-12-14T07:06:40.093Z,-5.20
2022-12-14T07:09:09.126Z,-5.10
2022-12-14T07:11:36.055Z,-5.10
2022-12-14T07:14:07.107Z,-5.10
2022-12-14T07:16:37.084Z,-5.10
2022-12-14T07:19:04.825Z,-5.10
2022-12-14T07:21:32.228Z,-5.00
2022-12-14T07:24:01.128Z,-5.10
2022-12-14T07:26:29.503Z,-5.00
2022-12-14T07:29:00.679Z,-4.90
2022-12-14T07:31:28.704Z,-4.90
2022-12-14T07:33:57.211Z,-4.80
2022-12-14T07:36:25.464Z,-4.80
2022-12-14T07:38:53.755Z,-4.80
2022-12-14T07:41:24.626Z,-4.80
2022-12-14T07:43:53.542Z,-4.70
2022-12-14T07:46:22.360Z,-4.70
2022-12-14T07:48:54.464Z,-4.70
2022-12-14T07:51:27.142Z,-4.60
2022-12-14T07:53:54.645Z,-4.60
2022-12-14T07:56:24.960Z,-4.60
2022-12-14T07:58:52.766Z,-4.50
2022-12-14T08:01:22.408Z,-4.50
2022-12-14T08:03:53.223Z,-4.50
2022-12-14T08:06:22.031Z,-4.40
2022-12-14T08:08:49.340Z,-4.40
2022-12-14T08:11:16.961Z,-4.40
2022-12-14T08:13:44.311Z,-4.40
2022-12-14T08:16:13.975Z,-4.30
2022-12-14T08:18:42.220Z,-4.30
2022-12-14T08:21:11.262Z,-4.30
2022-12-14T08:23:42.073Z,-4.30
2022-12-14T08:26:09.276Z,-4.30
2022-12-14T08:28:36.575Z,-4.30
2022-12-14T08:31:06.636Z,-4.20
2022-12-14T08:33:35.507Z,-4.20
2022-12-14T08:36:13.780Z,-4.20
2022-12-14T08:38:42.187Z,-4.10
2022-12-14T08:41:12.155Z,-4.10
2022-12-14T08:43:40.944Z,-4.10
2022-12-14T08:46:10.225Z,-4.10
2022-12-14T08:48:38.118Z,-4.00
2022-12-14T08:51:07.649Z,-4.00
2022-12-14T08:53:35.978Z,-4.00
2022-12-14T08:56:13.833Z,-4.00
2022-12-14T08:58:41.543Z,-4.00
2022-12-14T09:01:15.304Z,-4.00
2022-12-14T09:03:44.924Z,-4.00
2022-12-14T09:06:15.218Z,-3.90
2022-12-14T09:08:42.346Z,-3.90
2022-12-14T09:11:16.018Z,-3.90
2022-12-14T09:13:43.639Z,-3.90
2022-12-14T09:16:17.136Z,-3.80
2022-12-14T09:18:45.916Z,-3.80
2022-12-14T09:21:19.172Z,-3.90
2022-12-14T09:23:46.500Z,-3.90
2022-12-14T09:26:18.188Z,-3.90
2022-12-14T09:28:52.014Z,-3.90
2022-12-14T09:31:22.285Z,-3.90
2022-12-14T09:33:51.169Z,-3.90
2022-12-14T09:36:24.113Z,-3.90
2022-12-14T09:38:52.790Z,-3.90
2022-12-14T09:41:50.703Z,-3.80
2022-12-14T09:44:51.519Z,-3.90
2022-12-14T09:47:41.873Z,-3.90
2022-12-14T09:50:15.852Z,-4.00
2022-12-14T09:52:49.084Z,-4.00
2022-12-14T09:55:37.455Z,-4.10
2022-12-14T09:58:27.521Z,-4.10
2022-12-14T10:01:03.658Z,-4.10
2022-12-14T10:03:45.519Z,-4.20
2022-12-14T10:06:34.325Z,-4.20
2022-12-14T10:09:26.388Z,-4.20
2022-12-14T10:12:14.685Z,-4.20
2022-12-14T10:15:02.538Z,-4.10
2022-12-14T10:17:51.132Z,-4.00
2022-12-14T10:20:22.045Z,-4.10
2022-12-14T10:22:52.688Z,-4.00
2022-12-14T10:25:25.429Z,-4.00
2022-12-14T10:28:13.309Z,-4.10
2022-12-14T10:30:44.659Z,-4.00
2022-12-14T10:33:24.569Z,-3.90
2022-12-14T10:35:55.699Z,-3.80
2022-12-14T10:38:34.047Z,-3.80
2022-12-14T10:41:15.508Z,-3.80
2022-12-14T10:44:01.193Z,-3.70
2022-12-14T10:46:53.487Z,-3.60
2022-12-14T10:49:55.338Z,-3.50
2022-12-14T10:52:30.974Z,-3.50
2022-12-14T10:55:03.399Z,-3.40
2022-12-14T10:57:30.689Z,-3.30
2022-12-14T11:00:08.339Z,-3.30
2022-12-14T11:02:41.515Z,-3.20
2022-12-14T11:05:36.350Z,-3.20
2022-12-14T11:08:07.260Z,-3.10
2022-12-14T11:10:36.399Z,-3.10
2022-12-14T11:13:05.084Z,-3.00
2022-12-14T11:15:42.382Z,-2.90
2022-12-14T11:18:12.341Z,-2.90
2022-12-14T11:21:00.363Z,-2.90
2022-12-14T11:23:38.107Z,-2.90
2022-12-14T11:26:15.349Z,-2.80
2022-12-14T11:28:54.402Z,-2.70
2022-12-14T11:31:23.014Z,-2.80
2022-12-14T11:33:55.949Z,-2.70
2022-12-14T11:36:38.527Z,-2.70
2022-12-14T11:39:09.683Z,-2.60
2022-12-14T11:41:39.181Z,-2.70
2022-12-14T11:44:15.901Z,-2.60
2022-12-14T11:46:51.238Z,-2.50
2022-12-14T11:49:36.524Z,-2.50
2022-12-14T11:52:09.237Z,-2.50
2022-12-14T11:54:42.338Z,-2.40
2022-12-14T11:57:12.514Z,-2.40
2022-12-14T11:59:47.544Z,-2.40
2022-12-14T12:02:23.518Z,-2.40
2022-12-14T12:05:15.999Z,-2.30
2022-12-14T12:07:51.368Z,-2.30
2022-12-14T12:10:23.562Z,-2.20
2022-12-14T12:12:58.036Z,-2.20
2022-12-14T12:15:49.882Z,-2.20
2022-12-14T12:18:20.226Z,-2.10
2022-12-14T12:20:50.495Z,-2.10
2022-12-14T12:23:27.320Z,-2.10
2022-12-14T12:25:57.719Z,-2.10
2022-12-14T12:28:33.032Z,-2.10
2022-12-14T12:31:10.948Z,-2.10
2022-12-14T12:33:50.730Z,-2.10
2022-12-14T12:36:24.127Z,-1.90
2022-12-14T12:39:01.695Z,-1.90
2022-12-14T12:41:34.553Z,-1.90
2022-12-14T12:44:20.802Z,-1.80
2022-12-14T12:49:46.330Z,-1.70
2022-12-14T12:52:26.859Z,-1.70
2022-12-14T12:55:01.856Z,-1.70
2022-12-14T12:57:33.712Z,-1.70
2022-12-14T13:00:01.181Z,-1.70
2022-12-14T13:02:42.778Z,-1.60
2022-12-14T13:05:45.107Z,-1.60
2022-12-14T13:08:21.167Z,-1.60
2022-12-14T13:13:41.173Z,-1.50
2022-12-14T13:16:10.849Z,-1.60
2022-12-14T13:21:49.799Z,-1.50
2022-12-14T13:24:20.044Z,-1.60
2022-12-14T13:27:31.259Z,-1.50
2022-12-14T13:30:19.113Z,-1.50
2022-12-14T13:32:57.722Z,-1.50
2022-12-14T13:35:51.748Z,-1.60
2022-12-14T13:38:40.546Z,-1.50
2022-12-14T13:41:23.906Z,-1.50
2022-12-14T13:43:53.735Z,-1.60
2022-12-14T13:46:26.996Z,-1.60
2022-12-14T13:48:58.344Z,-1.50
2022-12-14T13:51:32.074Z,-1.60
2022-12-14T13:54:02.930Z,-1.50
2022-12-14T13:56:34.007Z,-1.60
2022-12-14T13:59:04.011Z,-1.50
2022-12-14T14:01:46.544Z,-1.50
2022-12-14T14:04:16.677Z,-1.60
2022-12-14T14:06:49.096Z,-1.50
2022-12-14T14:09:34.371Z,-1.70
2022-12-14T14:12:32.230Z,-1.60
2022-12-14T14:15:09.509Z,-1.60
2022-12-14T14:17:49.211Z,-1.50
2022-12-14T14:20:45.708Z,-1.70
2022-12-14T14:23:20.148Z,-1.70
2022-12-14T14:25:51.868Z,-1.70
2022-12-14T14:28:23.311Z,-1.80
2022-12-14T14:30:54.409Z,-1.80
2022-12-14T14:33:55.461Z,-2.00
2022-12-14T14:36:27.379Z,-2.10
2022-12-14T14:38:56.010Z,-2.10
2022-12-14T14:41:31.988Z,-2.20
2022-12-14T14:44:08.215Z,-2.10
2022-12-14T14:46:40.102Z,-2.10
2022-12-14T14:49:19.697Z,-2.30
2022-12-14T14:51:46.727Z,-2.30
2022-12-14T14:54:44.841Z,-2.30
2022-12-14T14:57:53.300Z,-2.20
2022-12-14T15:00:20.406Z,-2.40
2022-12-14T15:02:49.673Z,-2.50
2022-12-14T15:05:42.619Z,-2.60
2022-12-14T15:08:39.053Z,-2.40
2022-12-14T15:11:15.142Z,-2.40
2022-12-14T15:13:50.723Z,-2.40
2022-12-14T15:16:22.847Z,-2.20
2022-12-14T15:18:49.723Z,-2.20
2022-12-14T15:21:18.895Z,-2.20
2022-12-14T15:23:49.448Z,-2.20
2022-12-14T15:26:28.854Z,-2.00
2022-12-14T15:28:59.027Z,-2.10
2022-12-14T15:31:34.943Z,-2.10
2022-12-14T15:34:03.227Z,-2.00
2022-12-14T15:36:34.552Z,-2.20
2022-12-14T15:39:01.549Z,-2.00
2022-12-14T15:41:30.429Z,-1.90
2022-12-14T15:44:00.040Z,-1.90
2022-12-14T15:46:33.550Z,-2.20
2022-12-14T15:49:10.859Z,-2.10
2022-12-14T15:51:41.932Z,-2.10
2022-12-14T15:54:18.449Z,-1.90
2022-12-14T15:56:47.993Z,-2.20
2022-12-14T15:59:32.307Z,-2.40
2022-12-14T16:02:10.323Z,-2.60
2022-12-14T16:04:37.992Z,-2.90
2022-12-14T16:07:14.260Z,-3.00
2022-12-14T16:09:53.088Z,-3.00
2022-12-14T16:12:24.856Z,-2.90
2022-12-14T16:14:57.385Z,-2.70
2022-12-14T16:17:32.216Z,-2.60
2022-12-14T16:20:02.361Z,-2.40
2022-12-14T16:22:32.079Z,-2.40
2022-12-14T16:25:08.209Z,-2.50
2022-12-14T16:27:49.793Z,-2.20
2022-12-14T16:30:30.859Z,-2.40
2022-12-14T16:33:17.669Z,-2.40
2022-12-14T16:35:46.339Z,-2.60
2022-12-14T16:38:17.170Z,-2.60
2022-12-14T16:40:57.436Z,-2.50
2022-12-14T16:43:32.719Z,-2.40
2022-12-14T16:46:05.926Z,-2.40
2022-12-14T16:48:41.528Z,-2.40
2022-12-14T16:51:37.955Z,-2.60
2022-12-14T16:54:22.910Z,-2.50
2022-12-14T16:56:58.197Z,-2.60
2022-12-14T16:59:40.623Z,-2.80
2022-12-14T17:02:28.108Z,-2.90
2022-12-14T17:04:57.319Z,-2.80
2022-12-14T17:07:27.227Z,-2.60
2022-12-14T17:09:56.402Z,-2.50
2022-12-14T17:12:24.997Z,-2.40
2022-12-14T17:14:52.282Z,-2.50
2022-12-14T17:17:26.958Z,-2.40
2022-12-14T17:19:53.965Z,-2.50
2022-12-14T17:22:27.610Z,-2.40
2022-12-14T17:24:54.609Z,-2.50
2022-12-14T17:27:26.741Z,-2.50
2022-12-14T17:29:54.758Z,-2.40
2022-12-14T17:32:22.911Z,-2.40
2022-12-14T17:34:50.225Z,-2.40
2022-12-14T17:37:19.651Z,-2.60
2022-12-14T17:39:49.831Z,-2.60
2022-12-14T17:42:25.899Z,-2.70
2022-12-14T17:44:58.912Z,-2.50
2022-12-14T17:47:26.190Z,-2.70
2022-12-14T17:49:55.822Z,-2.60
2022-12-14T17:52:32.984Z,-2.60
2022-12-14T17:55:01.952Z,-2.70
2022-12-14T17:57:29.619Z,-2.70
2022-12-14T18:00:14.911Z,-2.80
2022-12-14T18:02:42.714Z,-2.60
2022-12-14T18:05:19.947Z,-2.80
2022-12-14T18:07:49.699Z,-2.90
2022-12-14T18:10:18.652Z,-2.70
2022-12-14T18:12:49.994Z,-2.70
2022-12-14T18:15:24.609Z,-2.80
2022-12-14T18:17:51.988Z,-2.90
2022-12-14T18:20:23.475Z,-3.00
2022-12-14T18:22:53.798Z,-3.00
2022-12-14T18:25:43.851Z,-3.00
2022-12-14T18:28:21.731Z,-3.20
2022-12-14T18:31:12.969Z,-3.20
2022-12-14T18:33:43.656Z,-3.20
2022-12-14T18:36:21.541Z,-3.20
2022-12-14T18:38:53.513Z,-3.30
2022-12-14T18:41:23.348Z,-3.50
2022-12-14T18:43:50.820Z,-3.60
2022-12-14T18:46:18.072Z,-3.50
2022-12-14T18:48:45.327Z,-3.50
2022-12-14T18:51:16.161Z,-3.50
2022-12-14T18:53:48.447Z,-3.60
2022-12-14T18:56:15.474Z,-3.80
2022-12-14T18:58:47.104Z,-3.90
2022-12-14T19:01:20.033Z,-4.00
2022-12-14T19:03:47.739Z,-4.00
2022-12-14T19:09:13.678Z,-4.00
2022-12-14T19:11:44.366Z,-4.20
2022-12-14T19:14:14.572Z,-4.30
2022-12-14T19:16:47.687Z,-4.20
2022-12-14T19:19:14.738Z,-4.20
2022-12-14T19:21:43.229Z,-4.30
2022-12-14T19:24:13.598Z,-4.40
2022-12-14T19:26:40.666Z,-4.40
2022-12-14T19:29:07.705Z,-4.40
2022-12-14T19:31:37.462Z,-4.40
2022-12-14T19:34:10.349Z,-4.40
2022-12-14T19:36:40.317Z,-4.40
2022-12-14T19:39:07.159Z,-4.40
2022-12-14T19:41:34.262Z,-4.30
2022-12-14T19:44:03.548Z,-4.10
2022-12-14T19:46:30.742Z,-4.30
2022-12-14T19:49:01.047Z,-4.30
2022-12-14T19:51:28.172Z,-4.50
2022-12-14T19:53:57.884Z,-4.40
2022-12-14T19:56:24.961Z,-4.40
2022-12-14T20:05:10.070Z,-4.50
2022-12-14T20:07:43.414Z,-4.50
2022-12-14T20:10:13.820Z,-4.50
2022-12-14T20:15:08.432Z,-4.50
2022-12-14T20:17:35.530Z,-4.50
2022-12-14T20:20:02.650Z,-4.60
2022-12-14T20:22:29.574Z,-4.60
2022-12-14T20:24:56.617Z,-4.60
2022-12-14T20:27:26.371Z,-4.60
2022-12-14T20:30:04.979Z,-4.60
2022-12-14T20:32:49.300Z,-4.60
2022-12-14T20:35:23.100Z,-4.60
2022-12-14T20:37:57.636Z,-4.60
2022-12-14T20:40:38.072Z,-4.70
2022-12-14T20:43:07.529Z,-4.70
2022-12-14T20:45:42.567Z,-4.60
2022-12-14T20:48:17.076Z,-4.60
2022-12-14T20:50:59.339Z,-4.60
2022-12-14T20:53:27.587Z,-4.60
2022-12-14T20:55:54.900Z,-4.50
2022-12-14T20:58:23.112Z,-4.70
2022-12-14T21:00:51.359Z,-4.70
2022-12-14T21:03:18.382Z,-4.70
2022-12-14T21:05:45.314Z,-4.70
2022-12-14T21:08:15.621Z,-4.70
2022-12-14T21:10:44.117Z,-4.80
2022-12-14T21:13:11.032Z,-4.70
2022-12-14T21:15:37.863Z,-4.80
2022-12-14T21:18:04.956Z,-4.70
2022-12-14T21:20:31.970Z,-4.70
2022-12-14T21:22:58.876Z,-4.80
2022-12-14T21:25:25.876Z,-4.80
2022-12-14T21:27:53.401Z,-4.80
2022-12-14T21:30:20.496Z,-4.80
2022-12-14T21:32:47.290Z,-4.80
2022-12-14T21:35:17.682Z,-4.80
2022-12-14T21:37:44.953Z,-4.80
2022-12-14T21:40:32.419Z,-4.90
2022-12-14T21:42:59.497Z,-5.00
2022-12-14T21:45:26.504Z,-4.90
2022-12-14T21:47:54.435Z,-4.80
2022-12-14T21:50:21.237Z,-4.80
2022-12-14T21:52:48.020Z,-4.80
2022-12-14T21:55:17.474Z,-4.70
2022-12-14T21:58:03.350Z,-4.70
2022-12-14T22:00:30.443Z,-4.70
2022-12-14T22:02:58.387Z,-4.50
2022-12-14T22:05:26.967Z,-4.30
2022-12-14T22:07:54.448Z,-4.30
2022-12-14T22:10:25.129Z,-4.20
2022-12-14T22:12:52.161Z,-4.20
2022-12-14T22:15:18.995Z,-4.10
2022-12-14T22:17:45.759Z,-4.10
2022-12-14T22:20:13.093Z,-4.10
2022-12-14T22:22:39.871Z,-4.00
2022-12-14T22:25:07.527Z,-4.10
2022-12-14T22:27:34.315Z,-4.10
2022-12-14T22:30:01.055Z,-4.00
2022-12-14T22:32:28.354Z,-4.00
2022-12-14T22:34:55.135Z,-3.90
2022-12-14T22:37:21.929Z,-3.90
2022-12-14T22:39:49.142Z,-3.90
2022-12-14T22:42:16.374Z,-3.90
2022-12-14T22:44:43.543Z,-3.90
2022-12-14T22:47:10.244Z,-4.00
2022-12-14T22:49:37.100Z,-4.00
2022-12-14T22:52:03.976Z,-4.00
2022-12-14T22:54:30.905Z,-4.00
2022-12-14T22:57:04.176Z,-4.00
2022-12-14T22:59:43.695Z,-4.10
2022-12-14T23:02:10.883Z,-4.10
2022-12-14T23:04:38.391Z,-4.20
2022-12-14T23:07:05.751Z,-4.20
2022-12-14T23:09:50.983Z,-4.30
2022-12-14T23:12:36.219Z,-4.30
2022-12-14T23:15:22.003Z,-4.40
2022-12-14T23:18:07.560Z,-4.30
2022-12-14T23:20:53.177Z,-4.20
2022-12-14T23:23:38.693Z,-4.20
2022-12-14T23:26:24.342Z,-4.20
2022-12-14T23:29:09.692Z,-4.20
2022-12-14T23:31:55.367Z,-4.40
2022-12-14T23:34:40.568Z,-4.60
2022-12-14T23:37:26.647Z,-4.80
2022-12-14T23:40:12.335Z,-4.90
2022-12-14T23:42:57.608Z,-5.00
2022-12-14T23:45:43.204Z,-5.00
2022-12-14T23:48:28.841Z,-5.00
2022-12-14T23:51:14.266Z,-4.90
2022-12-14T23:53:59.419Z,-5.00
2022-12-14T23:56:44.799Z,-5.00
2022-12-14T23:59:32.590Z,-5.00
